createdAt,value
2023-05-15T00:00:25.354Z,1.24
2023-05-15T00:01:25.374Z,1.06
2023-05-15T00:02:25.448Z,1.14
2023-05-15T00:03:25.457Z,1.06
2023-05-15T00:04:25.355Z,0.99
2023-05-15T00:05:25.518Z,1.27
2023-05-15T00:06:25.299Z,1.43
2023-05-15T00:07:25.329Z,1.19
2023-05-15T00:08:25.319Z,0.98
2023-05-15T00:09:25.322Z,1.22
2023-05-15T00:10:25.292Z,1.18
2023-05-15T00:11:25.268Z,0.96
2023-05-15T00:12:25.282Z,1.02
2023-05-15T00:13:25.260Z,1.11
2023-05-15T00:14:25.279Z,1.01
2023-05-15T00:15:25.428Z,1.18
2023-05-15T00:16:25.395Z,1.17
2023-05-15T00:17:25.272Z,1.21
2023-05-15T00:18:25.220Z,1.18
2023-05-15T00:19:25.220Z,1.39
2023-05-15T00:20:25.214Z,1.23
2023-05-15T00:21:25.198Z,1.49
2023-05-15T00:22:25.186Z,1.21
2023-05-15T00:23:25.191Z,1.11
2023-05-15T00:24:25.167Z,1.28
2023-05-15T00:25:25.340Z,1.22
2023-05-15T00:26:25.160Z,0.95
2023-05-15T00:27:25.158Z,1.39
2023-05-15T00:28:25.192Z,1.32
2023-05-15T00:29:25.190Z,1.27
2023-05-15T00:30:25.193Z,1.12
2023-05-15T00:31:25.225Z,1.13
2023-05-15T00:32:25.207Z,1.14
2023-05-15T00:33:25.229Z,1.25
2023-05-15T00:34:25.264Z,1.26
2023-05-15T00:35:25.592Z,1.33
2023-05-15T00:36:25.398Z,1.11
2023-05-15T00:37:25.440Z,1.25
2023-05-15T00:38:25.512Z,1.77
2023-05-15T00:39:25.550Z,1.45
2023-05-15T00:40:25.635Z,1.51
2023-05-15T00:41:25.656Z,1.34
2023-05-15T00:42:25.680Z,1.34
2023-05-15T00:43:25.686Z,1.23
2023-05-15T00:44:25.687Z,0.99
2023-05-15T00:45:25.813Z,1.17
2023-05-15T00:46:25.713Z,0.99
2023-05-15T00:47:25.734Z,1.64
2023-05-15T00:48:25.714Z,1.15
2023-05-15T00:49:25.727Z,1.22
2023-05-15T00:50:25.754Z,1.07
2023-05-15T00:51:25.717Z,1.23
2023-05-15T00:52:25.726Z,1.07
2023-05-15T00:53:25.791Z,1.26
2023-05-15T00:54:25.731Z,1.36
2023-05-15T00:55:25.904Z,1.16
2023-05-15T00:56:25.756Z,1.12
2023-05-15T00:57:25.771Z,1.20
2023-05-15T00:58:25.815Z,1.41
2023-05-15T00:59:25.802Z,1.36
2023-05-15T01:00:25.830Z,1.08
2023-05-15T01:01:25.932Z,1.07
2023-05-15T01:02:25.946Z,1.04
2023-05-15T01:03:25.900Z,0.99
2023-05-15T01:04:25.860Z,0.90
2023-05-15T01:05:26.221Z,0.88
2023-05-15T01:06:25.908Z,0.87
2023-05-15T01:07:25.925Z,1.05
2023-05-15T01:08:25.930Z,1.08
2023-05-15T01:09:25.967Z,0.70
2023-05-15T01:10:25.960Z,1.07
2023-05-15T01:11:25.985Z,1.18
2023-05-15T01:12:26.005Z,1.19
2023-05-15T01:13:26.019Z,0.79
2023-05-15T01:14:26.014Z,0.91
2023-05-15T01:15:26.271Z,1.10
2023-05-15T01:16:26.041Z,1.05
2023-05-15T01:17:26.066Z,0.89
2023-05-15T01:18:26.343Z,0.96
2023-05-15T01:19:26.224Z,0.91
2023-05-15T01:20:26.124Z,0.80
2023-05-15T01:21:26.132Z,1.14
2023-05-15T01:22:26.136Z,1.03
2023-05-15T01:23:26.162Z,1.01
2023-05-15T01:24:26.167Z,1.04
2023-05-15T01:25:26.394Z,0.93
2023-05-15T01:26:26.177Z,0.94
2023-05-15T01:27:26.206Z,1.07
2023-05-15T01:28:26.177Z,1.20
2023-05-15T01:29:26.186Z,1.09
2023-05-15T01:30:26.178Z,1.06
2023-05-15T01:31:26.287Z,1.09
2023-05-15T01:32:26.255Z,0.93
2023-05-15T01:33:26.239Z,1.05
2023-05-15T01:34:26.270Z,1.08
2023-05-15T01:35:26.536Z,0.80
2023-05-15T01:36:26.341Z,0.88
2023-05-15T01:37:26.371Z,0.94
2023-05-15T01:38:26.401Z,0.95
2023-05-15T01:39:26.426Z,1.07
2023-05-15T01:40:26.447Z,0.63
2023-05-15T01:41:26.455Z,1.09
2023-05-15T01:42:26.482Z,0.86
2023-05-15T01:43:26.526Z,1.23
2023-05-15T01:44:26.629Z,0.96
2023-05-15T01:45:26.703Z,0.90
2023-05-15T01:46:27.511Z,0.75
2023-05-15T01:47:26.673Z,1.04
2023-05-15T01:48:26.697Z,0.86
2023-05-15T01:49:26.710Z,0.85
2023-05-15T01:50:26.765Z,1.01
2023-05-15T01:51:26.795Z,0.93
2023-05-15T01:52:26.819Z,0.94
2023-05-15T01:53:26.819Z,0.72
2023-05-15T01:54:26.833Z,1.02
2023-05-15T01:55:27.053Z,0.81
2023-05-15T01:56:26.857Z,1.01
2023-05-15T01:57:26.860Z,1.03
2023-05-15T01:58:26.918Z,0.63
2023-05-15T01:59:26.903Z,1.03
2023-05-15T02:00:26.928Z,0.81
2023-05-15T02:01:27.018Z,1.02
2023-05-15T02:02:27.078Z,0.86
2023-05-15T02:03:27.080Z,1.19
2023-05-15T02:04:27.066Z,0.93
2023-05-15T02:05:27.240Z,1.06
2023-05-15T02:06:27.119Z,0.97
2023-05-15T02:07:27.151Z,0.93
2023-05-15T02:08:27.195Z,0.82
2023-05-15T02:09:27.222Z,1.05
2023-05-15T02:10:27.268Z,0.89
2023-05-15T02:11:27.271Z,0.73
2023-05-15T02:12:27.293Z,0.85
2023-05-15T02:13:27.303Z,0.90
2023-05-15T02:14:27.327Z,0.92
2023-05-15T02:15:27.439Z,0.95
2023-05-15T02:16:27.422Z,1.11
2023-05-15T02:17:27.434Z,0.99
2023-05-15T02:18:27.491Z,0.81
2023-05-15T02:19:27.491Z,1.02
2023-05-15T02:20:27.515Z,1.08
2023-05-15T02:21:27.575Z,0.84
2023-05-15T02:22:27.592Z,1.00
2023-05-15T02:23:27.650Z,1.10
2023-05-15T02:24:27.684Z,1.06
2023-05-15T02:25:27.723Z,0.82
2023-05-15T02:26:27.783Z,0.95
2023-05-15T02:27:27.832Z,0.75
2023-05-15T02:28:27.896Z,1.35
2023-05-15T02:29:27.953Z,0.69
2023-05-15T02:30:28.006Z,0.87
2023-05-15T02:31:28.081Z,0.89
2023-05-15T02:32:28.160Z,0.82
2023-05-15T02:33:28.175Z,0.72
2023-05-15T02:34:28.243Z,0.84
2023-05-15T02:35:28.293Z,0.94
2023-05-15T02:36:28.339Z,0.92
2023-05-15T02:37:28.392Z,0.60
2023-05-15T02:38:28.448Z,0.67
2023-05-15T02:39:28.474Z,0.66
2023-05-15T02:40:28.525Z,0.87
2023-05-15T02:41:28.562Z,0.80
2023-05-15T02:42:28.621Z,0.89
2023-05-15T02:43:28.662Z,0.86
2023-05-15T02:44:28.669Z,0.97
2023-05-15T02:45:28.775Z,0.86
2023-05-15T02:46:28.770Z,0.88
2023-05-15T02:47:28.847Z,0.97
2023-05-15T02:48:28.864Z,0.95
2023-05-15T02:49:28.887Z,0.64
2023-05-15T02:50:28.935Z,0.73
2023-05-15T02:51:29.009Z,1.06
2023-05-15T02:52:29.046Z,0.86
2023-05-15T02:53:29.102Z,0.85
2023-05-15T02:54:29.142Z,0.68
2023-05-15T02:55:29.183Z,0.75
2023-05-15T02:56:29.227Z,0.52
2023-05-15T02:57:29.260Z,0.76
2023-05-15T02:58:29.286Z,1.01
2023-05-15T02:59:29.336Z,0.90
2023-05-15T03:00:29.367Z,1.01
2023-05-15T03:01:29.421Z,0.89
2023-05-15T03:02:29.435Z,0.72
2023-05-15T03:03:29.461Z,0.76
2023-05-15T03:04:29.542Z,0.69
2023-05-15T03:05:29.556Z,0.95
2023-05-15T03:06:29.558Z,0.73
2023-05-15T03:07:29.594Z,0.74
2023-05-15T03:08:29.613Z,0.95
2023-05-15T03:09:29.620Z,0.82
2023-05-15T03:10:29.656Z,0.93
2023-05-15T03:11:29.708Z,0.90
2023-05-15T03:12:29.734Z,1.00
2023-05-15T03:13:29.774Z,0.76
2023-05-15T03:14:29.802Z,0.90
2023-05-15T03:15:29.844Z,1.09
2023-05-15T03:16:29.922Z,0.75
2023-05-15T03:17:29.947Z,0.89
2023-05-15T03:18:29.955Z,0.99
2023-05-15T03:19:29.963Z,0.83
2023-05-15T03:20:30.015Z,1.02
2023-05-15T03:21:30.048Z,0.92
2023-05-15T03:22:30.096Z,0.95
2023-05-15T03:23:30.109Z,0.97
2023-05-15T03:24:30.158Z,1.06
2023-05-15T03:25:30.199Z,1.06
2023-05-15T03:26:30.231Z,1.12
2023-05-15T03:27:30.242Z,1.08
2023-05-15T03:28:30.295Z,0.80
2023-05-15T03:29:30.317Z,0.83
2023-05-15T03:30:30.360Z,0.90
2023-05-15T03:31:30.415Z,0.96
2023-05-15T03:32:30.450Z,0.90
2023-05-15T03:33:30.455Z,0.93
2023-05-15T03:34:30.483Z,1.05
2023-05-15T03:35:30.495Z,0.83
2023-05-15T03:36:30.516Z,0.88
2023-05-15T03:37:30.546Z,1.02
2023-05-15T03:38:30.634Z,0.89
2023-05-15T03:39:30.603Z,1.07
2023-05-15T03:40:30.617Z,0.84
2023-05-15T03:41:30.663Z,0.99
2023-05-15T03:42:30.682Z,0.97
2023-05-15T03:43:30.705Z,1.15
2023-05-15T03:44:30.721Z,0.87
2023-05-15T03:45:30.745Z,1.21
2023-05-15T03:46:30.832Z,1.00
2023-05-15T03:47:30.912Z,0.93
2023-05-15T03:48:30.849Z,1.08
2023-05-15T03:49:30.887Z,1.09
2023-05-15T03:50:30.942Z,0.86
2023-05-15T03:51:31.005Z,1.10
2023-05-15T03:52:31.028Z,0.99
2023-05-15T03:53:31.053Z,1.02
2023-05-15T03:54:31.112Z,1.07
2023-05-15T03:55:31.156Z,0.82
2023-05-15T03:56:31.205Z,0.92
2023-05-15T03:57:31.229Z,0.82
2023-05-15T03:58:31.290Z,0.85
2023-05-15T03:59:31.333Z,1.00
2023-05-15T04:00:31.382Z,0.87
2023-05-15T04:01:31.420Z,1.25
2023-05-15T04:02:31.462Z,1.19
2023-05-15T04:03:31.571Z,1.19
2023-05-15T04:04:31.539Z,1.15
2023-05-15T04:05:31.687Z,1.10
2023-05-15T04:06:31.617Z,1.21
2023-05-15T04:07:31.675Z,0.97
2023-05-15T04:08:31.688Z,1.23
2023-05-15T04:09:31.716Z,1.66
2023-05-15T04:10:31.728Z,0.98
2023-05-15T04:11:31.766Z,0.84
2023-05-15T04:12:31.780Z,1.11
2023-05-15T04:13:31.787Z,1.14
2023-05-15T04:14:31.824Z,1.38
2023-05-15T04:15:31.830Z,1.05
2023-05-15T04:16:31.932Z,1.33
2023-05-15T04:17:31.924Z,1.26
2023-05-15T04:18:31.991Z,1.17
2023-05-15T04:19:31.975Z,1.27
2023-05-15T04:20:32.019Z,1.19
2023-05-15T04:21:32.039Z,1.20
2023-05-15T04:22:32.081Z,1.28
2023-05-15T04:23:32.157Z,1.40
2023-05-15T04:24:32.169Z,1.31
2023-05-15T04:25:32.205Z,1.22
2023-05-15T04:26:32.286Z,1.42
2023-05-15T04:27:32.290Z,1.38
2023-05-15T04:28:32.326Z,1.41
2023-05-15T04:29:32.370Z,1.26
2023-05-15T04:30:32.425Z,1.37
2023-05-15T04:31:32.585Z,1.39
2023-05-15T04:32:32.468Z,1.24
2023-05-15T04:33:32.514Z,1.20
2023-05-15T04:34:32.532Z,1.38
2023-05-15T04:35:32.568Z,1.57
2023-05-15T04:36:32.599Z,1.38
2023-05-15T04:37:32.651Z,1.04
2023-05-15T04:38:32.684Z,1.18
2023-05-15T04:39:32.688Z,1.42
2023-05-15T04:40:32.728Z,1.02
2023-05-15T04:41:32.806Z,1.13
2023-05-15T04:42:32.789Z,1.17
2023-05-15T04:43:32.836Z,0.99
2023-05-15T04:44:32.843Z,1.53
2023-05-15T04:45:32.899Z,1.26
2023-05-15T04:46:32.933Z,1.23
2023-05-15T04:47:32.997Z,1.36
2023-05-15T04:48:32.947Z,1.35
2023-05-15T04:49:32.964Z,1.28
2023-05-15T04:50:32.995Z,1.56
2023-05-15T04:51:33.009Z,1.30
2023-05-15T04:52:33.056Z,2.11
2023-05-15T04:53:33.079Z,1.54
2023-05-15T04:54:33.107Z,1.44
2023-05-15T04:55:33.743Z,1.30
2023-05-15T04:56:33.155Z,1.53
2023-05-15T04:57:33.181Z,1.10
2023-05-15T04:58:33.205Z,1.63
2023-05-15T04:59:33.197Z,2.03
2023-05-15T05:00:33.227Z,1.50
2023-05-15T05:01:33.326Z,1.53
2023-05-15T05:02:33.353Z,1.53
2023-05-15T05:03:33.344Z,1.43
2023-05-15T05:04:33.330Z,1.14
2023-05-15T05:05:33.358Z,1.14
2023-05-15T05:06:33.396Z,1.66
2023-05-15T05:07:33.435Z,1.48
2023-05-15T05:08:33.484Z,1.25
2023-05-15T05:09:33.511Z,1.26
2023-05-15T05:10:33.583Z,1.15
2023-05-15T05:11:33.633Z,1.34
2023-05-15T05:12:33.690Z,1.34
2023-05-15T05:13:33.754Z,1.25
2023-05-15T05:14:33.769Z,1.11
2023-05-15T05:15:33.796Z,1.36
2023-05-15T05:16:33.891Z,1.19
2023-05-15T05:17:33.898Z,1.29
2023-05-15T05:18:33.910Z,1.20
2023-05-15T05:19:33.913Z,0.91
2023-05-15T05:20:33.934Z,1.21
2023-05-15T05:21:33.958Z,1.25
2023-05-15T05:22:33.948Z,1.16
2023-05-15T05:23:33.984Z,1.20
2023-05-15T05:24:33.979Z,1.38
2023-05-15T05:25:34.009Z,1.51
2023-05-15T05:26:33.990Z,1.53
2023-05-15T05:27:34.007Z,1.49
2023-05-15T05:28:34.016Z,1.47
2023-05-15T05:29:34.052Z,1.46
2023-05-15T05:30:34.016Z,1.37
2023-05-15T05:31:34.273Z,1.48
2023-05-15T05:32:34.143Z,1.17
2023-05-15T05:33:34.079Z,1.71
2023-05-15T05:34:34.072Z,1.41
2023-05-15T05:35:34.079Z,1.40
2023-05-15T05:36:34.101Z,1.50
2023-05-15T05:37:34.138Z,1.53
2023-05-15T05:38:34.178Z,1.59
2023-05-15T05:39:34.195Z,1.14
2023-05-15T05:40:34.218Z,1.18
2023-05-15T05:41:34.230Z,1.29
2023-05-15T05:42:34.243Z,1.47
2023-05-15T05:43:34.296Z,1.43
2023-05-15T05:44:34.289Z,1.54
2023-05-15T05:45:34.353Z,1.53
2023-05-15T05:46:34.387Z,1.52
2023-05-15T05:47:34.455Z,1.76
2023-05-15T05:48:34.446Z,1.45
2023-05-15T05:49:34.474Z,1.73
2023-05-15T05:50:34.501Z,1.68
2023-05-15T05:51:34.558Z,1.40
2023-05-15T05:52:34.733Z,1.67
2023-05-15T05:53:34.627Z,1.48
2023-05-15T05:54:34.654Z,1.68
2023-05-15T05:55:34.689Z,1.70
2023-05-15T05:56:34.728Z,1.27
2023-05-15T05:57:34.739Z,1.23
2023-05-15T05:58:34.786Z,1.50
2023-05-15T05:59:34.830Z,1.28
2023-05-15T06:00:34.843Z,1.34
2023-05-15T06:01:34.881Z,1.06
2023-05-15T06:02:35.284Z,1.36
2023-05-15T06:03:35.139Z,1.06
2023-05-15T06:04:35.028Z,1.34
2023-05-15T06:05:35.028Z,1.58
2023-05-15T06:06:35.048Z,1.52
2023-05-15T06:07:35.063Z,1.10
2023-05-15T06:08:35.136Z,1.08
2023-05-15T06:09:35.114Z,1.30
2023-05-15T06:10:35.130Z,1.57
2023-05-15T06:11:35.148Z,1.21
2023-05-15T06:12:35.224Z,1.12
2023-05-15T06:13:35.731Z,1.44
2023-05-15T06:14:35.190Z,1.19
2023-05-15T06:15:35.162Z,1.37
2023-05-15T06:16:35.171Z,1.25
2023-05-15T06:17:35.270Z,1.43
2023-05-15T06:18:35.208Z,1.50
2023-05-15T06:19:35.171Z,1.34
2023-05-15T06:20:35.186Z,1.48
2023-05-15T06:21:35.181Z,1.27
2023-05-15T06:22:35.187Z,1.45
2023-05-15T06:23:35.234Z,1.66
2023-05-15T06:24:35.188Z,1.35
2023-05-15T06:25:35.165Z,1.20
2023-05-15T06:26:35.215Z,1.45
2023-05-15T06:27:35.268Z,1.38
2023-05-15T06:28:35.265Z,1.54
2023-05-15T06:29:35.334Z,1.34
2023-05-15T06:30:35.419Z,1.96
2023-05-15T06:31:35.440Z,1.60
2023-05-15T06:32:35.515Z,1.35
2023-05-15T06:33:35.553Z,1.50
2023-05-15T06:34:35.617Z,1.29
2023-05-15T06:35:35.688Z,1.11
2023-05-15T06:36:35.720Z,1.44
2023-05-15T06:37:36.247Z,1.37
2023-05-15T06:38:35.800Z,1.34
2023-05-15T06:39:35.854Z,1.55
2023-05-15T06:40:35.893Z,1.42
2023-05-15T06:41:35.952Z,1.83
2023-05-15T06:42:36.233Z,1.14
2023-05-15T06:43:36.494Z,1.12
2023-05-15T06:44:36.131Z,1.09
2023-05-15T06:45:36.104Z,0.99
2023-05-15T06:46:36.219Z,0.97
2023-05-15T06:47:36.289Z,1.29
2023-05-15T06:48:36.266Z,1.16
2023-05-15T06:49:36.334Z,1.36
2023-05-15T06:50:36.435Z,1.43
2023-05-15T06:51:36.448Z,1.20
2023-05-15T06:52:36.484Z,1.00
2023-05-15T06:53:36.538Z,1.31
2023-05-15T06:54:37.181Z,1.52
2023-05-15T06:55:36.652Z,1.54
2023-05-15T06:56:36.662Z,1.58
2023-05-15T06:57:36.723Z,1.53
2023-05-15T06:58:36.762Z,1.56
2023-05-15T06:59:36.803Z,1.44
2023-05-15T07:00:36.865Z,1.63
2023-05-15T07:01:36.942Z,1.88
2023-05-15T07:02:36.942Z,1.63
2023-05-15T07:03:36.941Z,2.13
2023-05-15T07:04:37.049Z,1.74
2023-05-15T07:05:37.100Z,1.55
2023-05-15T07:06:37.009Z,1.68
2023-05-15T07:07:37.253Z,1.16
2023-05-15T07:08:37.119Z,1.46
2023-05-15T07:09:37.150Z,1.46
2023-05-15T07:10:37.150Z,1.33
2023-05-15T07:11:37.182Z,1.58
2023-05-15T07:12:37.256Z,1.44
2023-05-15T07:13:37.214Z,1.34
2023-05-15T07:14:37.241Z,1.47
2023-05-15T07:15:37.254Z,1.86
2023-05-15T07:16:37.252Z,1.79
2023-05-15T07:17:37.853Z,1.64
2023-05-15T07:18:37.420Z,1.91
2023-05-15T07:19:37.316Z,2.05
2023-05-15T07:20:37.674Z,1.65
2023-05-15T07:21:37.293Z,1.93
2023-05-15T07:22:44.481Z,1.52
2023-05-15T07:23:38.336Z,1.85
2023-05-15T07:24:39.123Z,1.53
2023-05-15T07:25:37.321Z,1.75
2023-05-15T07:26:46.624Z,1.48
2023-05-15T07:27:37.793Z,1.28
2023-05-15T07:28:37.347Z,1.63
2023-05-15T07:29:37.257Z,1.82
2023-05-15T07:30:37.239Z,1.32
2023-05-15T07:31:37.387Z,1.25
2023-05-15T07:32:37.343Z,1.42
2023-05-15T07:33:37.214Z,1.46
2023-05-15T07:34:37.248Z,1.31
2023-05-15T07:35:37.244Z,1.35
2023-05-15T07:36:37.321Z,2.08
2023-05-15T07:37:37.288Z,3.32
2023-05-15T07:38:37.202Z,3.19
2023-05-15T07:39:37.272Z,1.84
2023-05-15T07:40:37.181Z,1.72
2023-05-15T07:41:37.213Z,1.62
2023-05-15T07:42:37.320Z,1.39
2023-05-15T07:43:37.145Z,1.41
2023-05-15T07:44:37.755Z,1.91
2023-05-15T07:45:37.236Z,1.58
2023-05-15T07:46:37.279Z,1.24
2023-05-15T07:47:37.275Z,1.44
2023-05-15T07:48:37.244Z,1.51
2023-05-15T07:49:37.267Z,1.21
2023-05-15T07:50:37.279Z,1.28
2023-05-15T07:51:37.289Z,1.59
2023-05-15T07:52:37.816Z,1.19
2023-05-15T07:53:37.352Z,1.11
2023-05-15T07:54:37.328Z,1.31
2023-05-15T07:55:37.387Z,1.43
2023-05-15T07:56:37.319Z,1.12
2023-05-15T07:57:37.330Z,1.28
2023-05-15T07:58:37.315Z,1.41
2023-05-15T07:59:37.344Z,1.39
2023-05-15T08:00:37.325Z,1.61
2023-05-15T08:01:37.285Z,1.31
2023-05-15T08:02:37.359Z,1.33
2023-05-15T08:03:37.392Z,1.41
2023-05-15T08:04:37.325Z,1.63
2023-05-15T08:05:37.264Z,1.38
2023-05-15T08:06:37.242Z,1.59
2023-05-15T08:07:37.263Z,1.51
2023-05-15T08:08:37.350Z,1.39
2023-05-15T08:09:37.229Z,1.41
2023-05-15T08:10:37.230Z,1.12
2023-05-15T08:11:37.206Z,1.38
2023-05-15T08:12:37.226Z,1.25
2023-05-15T08:13:37.213Z,1.47
2023-05-15T08:14:37.249Z,1.44
2023-05-15T08:15:37.280Z,1.52
2023-05-15T08:16:37.251Z,1.66
2023-05-15T08:17:37.273Z,1.40
2023-05-15T08:18:37.329Z,1.21
2023-05-15T08:19:37.363Z,1.60
2023-05-15T08:20:37.372Z,1.41
2023-05-15T08:21:37.449Z,1.45
2023-05-15T08:22:37.490Z,1.29
2023-05-15T08:23:37.586Z,1.47
2023-05-15T08:24:37.614Z,1.25
2023-05-15T08:25:37.874Z,1.31
2023-05-15T08:26:37.713Z,1.52
2023-05-15T08:27:38.334Z,1.38
2023-05-15T08:28:37.817Z,1.73
2023-05-15T08:29:39.473Z,1.49
2023-05-15T08:30:37.972Z,1.56
2023-05-15T08:31:38.061Z,1.74
2023-05-15T08:32:38.062Z,1.74
2023-05-15T08:33:38.113Z,1.59
2023-05-15T08:34:38.189Z,1.48
2023-05-15T08:35:38.273Z,1.85
2023-05-15T08:36:39.521Z,1.66
2023-05-15T08:37:38.774Z,1.48
2023-05-15T08:38:38.292Z,1.58
2023-05-15T08:39:38.281Z,1.25
2023-05-15T08:40:40.082Z,1.31
2023-05-15T08:41:40.895Z,1.68
2023-05-15T08:42:39.183Z,1.44
2023-05-15T08:43:38.293Z,1.50
2023-05-15T08:44:38.287Z,1.61
2023-05-15T08:45:38.294Z,1.22
2023-05-15T08:46:38.316Z,1.58
2023-05-15T08:47:38.400Z,1.34
2023-05-15T08:48:38.401Z,1.47
2023-05-15T08:49:38.257Z,1.27
2023-05-15T08:50:38.274Z,1.32
2023-05-15T08:51:38.245Z,1.06
2023-05-15T08:52:38.283Z,1.78
2023-05-15T08:53:38.250Z,1.48
2023-05-15T08:54:38.210Z,1.52
2023-05-15T08:55:38.225Z,1.27
2023-05-15T08:56:38.211Z,1.37
2023-05-15T08:57:38.325Z,1.64
2023-05-15T08:58:38.202Z,1.24
2023-05-15T08:59:38.207Z,1.38
2023-05-15T09:00:38.186Z,1.16
2023-05-15T09:01:38.245Z,1.70
2023-05-15T09:02:38.219Z,1.34
2023-05-15T09:03:38.293Z,1.15
2023-05-15T09:04:38.173Z,1.57
2023-05-15T09:05:40.086Z,1.35
2023-05-15T09:06:38.155Z,1.06
2023-05-15T09:07:38.196Z,1.25
2023-05-15T09:08:38.137Z,1.55
2023-05-15T09:09:38.127Z,1.39
2023-05-15T09:10:38.124Z,1.69
2023-05-15T09:11:38.100Z,1.34
2023-05-15T09:12:38.248Z,1.13
2023-05-15T09:13:38.102Z,1.15
2023-05-15T09:14:38.094Z,1.26
2023-05-15T09:15:38.116Z,1.21
2023-05-15T09:16:38.196Z,1.60
2023-05-15T09:17:38.161Z,1.09
2023-05-15T09:18:38.187Z,1.47
2023-05-15T09:19:38.545Z,1.17
2023-05-15T09:20:38.229Z,1.42
2023-05-15T09:21:38.250Z,1.14
2023-05-15T09:22:38.307Z,1.92
2023-05-15T09:23:38.263Z,1.97
2023-05-15T09:24:38.251Z,1.49
2023-05-15T09:25:38.312Z,1.30
2023-05-15T09:26:38.346Z,1.40
2023-05-15T09:27:38.320Z,1.23
2023-05-15T09:28:38.356Z,1.26
2023-05-15T09:29:38.267Z,1.43
2023-05-15T09:30:38.275Z,1.65
2023-05-15T09:31:38.343Z,1.39
2023-05-15T09:32:38.364Z,1.52
2023-05-15T09:33:38.390Z,1.53
2023-05-15T09:34:38.410Z,1.21
2023-05-15T09:35:38.521Z,1.38
2023-05-15T09:36:38.548Z,1.46
2023-05-15T09:37:38.836Z,1.48
2023-05-15T09:38:38.642Z,1.65
2023-05-15T09:39:38.708Z,1.39
2023-05-15T09:40:38.792Z,1.60
2023-05-15T09:41:38.755Z,1.35
2023-05-15T09:42:38.819Z,1.48
2023-05-15T09:43:38.799Z,1.54
2023-05-15T09:44:38.852Z,1.53
2023-05-15T09:45:38.990Z,1.46
2023-05-15T09:46:39.123Z,1.55
2023-05-15T09:47:39.217Z,1.62
2023-05-15T09:48:39.097Z,1.34
2023-05-15T09:49:39.108Z,1.51
2023-05-15T09:50:39.245Z,1.60
2023-05-15T09:51:39.237Z,1.47
2023-05-15T09:52:39.815Z,1.86
2023-05-15T09:53:39.349Z,1.43
2023-05-15T09:54:39.389Z,1.72
2023-05-15T09:55:39.462Z,1.74
2023-05-15T09:56:39.495Z,1.92
2023-05-15T09:57:39.552Z,1.45
2023-05-15T09:58:39.651Z,1.68
2023-05-15T09:59:39.676Z,1.49
2023-05-15T10:00:48.457Z,1.65
2023-05-15T10:01:40.746Z,1.73
2023-05-15T10:02:39.751Z,1.71
2023-05-15T10:03:39.805Z,1.74
2023-05-15T10:04:39.702Z,1.39
2023-05-15T10:05:43.505Z,1.35
2023-05-15T10:06:41.959Z,1.45
2023-05-15T10:07:39.690Z,1.42
2023-05-15T10:08:39.812Z,1.66
2023-05-15T10:09:39.674Z,1.83
2023-05-15T10:10:39.744Z,2.05
2023-05-15T10:11:39.649Z,2.76
2023-05-15T10:12:39.636Z,2.33
2023-05-15T10:13:39.627Z,1.87
2023-05-15T10:14:39.643Z,1.67
2023-05-15T10:15:39.722Z,1.57
2023-05-15T10:16:39.714Z,1.64
2023-05-15T10:17:39.642Z,2.35
2023-05-15T10:18:39.821Z,2.70
2023-05-15T10:19:47.192Z,3.33
2023-05-15T10:20:40.619Z,3.55
2023-05-15T10:21:39.569Z,2.12
2023-05-15T10:22:39.583Z,2.22
2023-05-15T10:23:39.837Z,2.25
2023-05-15T10:24:39.606Z,2.44
2023-05-15T10:25:39.554Z,2.08
2023-05-15T10:26:39.564Z,2.06
2023-05-15T10:27:39.550Z,1.93
2023-05-15T10:28:39.818Z,1.66
2023-05-15T10:29:39.540Z,1.86
2023-05-15T10:30:39.561Z,1.98
2023-05-15T10:31:39.563Z,1.63
2023-05-15T10:32:39.554Z,1.67
2023-05-15T10:33:39.531Z,2.22
2023-05-15T10:34:39.487Z,1.86
2023-05-15T10:35:39.493Z,2.29
2023-05-15T10:36:39.478Z,2.00
2023-05-15T10:37:39.465Z,2.14
2023-05-15T10:38:39.474Z,2.07
2023-05-15T10:39:39.462Z,1.75
2023-05-15T10:40:39.456Z,2.04
2023-05-15T10:41:39.569Z,2.12
2023-05-15T10:42:39.436Z,2.04
2023-05-15T10:43:39.453Z,1.80
2023-05-15T10:44:39.431Z,1.91
2023-05-15T10:45:39.417Z,1.52
2023-05-15T10:46:39.448Z,2.03
2023-05-15T10:47:39.500Z,2.11
2023-05-15T10:48:39.567Z,1.80
2023-05-15T10:49:39.568Z,1.63
2023-05-15T10:50:39.600Z,1.50
2023-05-15T10:51:39.657Z,1.42
2023-05-15T10:52:39.721Z,1.25
2023-05-15T10:53:39.773Z,1.43
2023-05-15T10:54:39.817Z,1.76
2023-05-15T10:55:39.885Z,1.54
2023-05-15T10:56:39.870Z,1.40
2023-05-15T10:57:39.911Z,1.84
2023-05-15T10:58:39.915Z,1.48
2023-05-15T10:59:39.948Z,2.09
2023-05-15T11:00:39.985Z,1.46
2023-05-15T11:01:40.077Z,1.75
2023-05-15T11:02:40.081Z,1.68
2023-05-15T11:03:48.837Z,1.54
2023-05-15T11:04:41.117Z,2.11
2023-05-15T11:05:40.071Z,2.32
2023-05-15T11:06:40.065Z,2.96
2023-05-15T11:07:40.060Z,1.98
2023-05-15T11:08:40.048Z,3.11
2023-05-15T11:09:40.027Z,4.75
2023-05-15T11:10:40.024Z,4.01
2023-05-15T11:11:40.029Z,3.25
2023-05-15T11:12:40.008Z,3.18
2023-05-15T11:13:40.315Z,2.92
2023-05-15T11:14:39.989Z,2.62
2023-05-15T11:15:40.000Z,2.39
2023-05-15T11:16:40.031Z,2.01
2023-05-15T11:17:40.022Z,1.79
2023-05-15T11:18:40.334Z,2.18
2023-05-15T11:19:39.959Z,1.95
2023-05-15T11:20:39.969Z,1.90
2023-05-15T11:21:39.936Z,1.73
2023-05-15T11:22:39.976Z,1.87
2023-05-15T11:23:40.317Z,1.95
2023-05-15T11:24:40.057Z,2.63
2023-05-15T11:25:40.095Z,2.41
2023-05-15T11:26:40.164Z,2.37
2023-05-15T11:27:40.213Z,2.02
2023-05-15T11:28:40.191Z,1.69
2023-05-15T11:29:40.183Z,1.85
2023-05-15T11:30:40.250Z,1.51
2023-05-15T11:31:40.197Z,1.99
2023-05-15T11:32:40.234Z,2.87
2023-05-15T11:33:40.208Z,2.19
2023-05-15T11:34:40.201Z,2.03
2023-05-15T11:35:40.216Z,1.85
2023-05-15T11:36:40.216Z,1.81
2023-05-15T11:37:40.294Z,2.02
2023-05-15T11:38:40.268Z,2.93
2023-05-15T11:39:40.258Z,2.69
2023-05-15T11:40:40.277Z,1.63
2023-05-15T11:41:40.302Z,1.78
2023-05-15T11:42:40.286Z,1.47
2023-05-15T11:43:40.307Z,1.91
2023-05-15T11:44:40.319Z,1.98
2023-05-15T11:45:40.354Z,1.69
2023-05-15T11:46:40.417Z,1.78
2023-05-15T11:47:40.425Z,2.90
2023-05-15T11:48:40.399Z,2.23
2023-05-15T11:49:40.398Z,2.29
2023-05-15T11:50:40.391Z,1.87
2023-05-15T11:51:40.404Z,1.72
2023-05-15T11:52:40.377Z,1.28
2023-05-15T11:53:40.391Z,1.44
2023-05-15T11:54:40.395Z,2.25
2023-05-15T11:55:40.399Z,1.73
2023-05-15T11:56:40.405Z,1.72
2023-05-15T11:57:40.426Z,1.27
2023-05-15T11:58:40.467Z,1.50
2023-05-15T11:59:40.442Z,1.84
2023-05-15T12:00:40.453Z,1.37
2023-05-15T12:01:40.457Z,1.28
2023-05-15T12:02:40.497Z,1.18
2023-05-15T12:03:40.599Z,0.95
2023-05-15T12:04:40.574Z,1.04
2023-05-15T12:05:47.273Z,0.94
2023-05-15T12:06:41.467Z,1.11
2023-05-15T12:07:40.491Z,1.21
2023-05-15T12:08:40.832Z,1.32
2023-05-15T12:09:40.443Z,1.09
2023-05-15T12:10:40.448Z,1.03
2023-05-15T12:11:40.436Z,1.51
2023-05-15T12:12:40.414Z,1.16
2023-05-15T12:13:40.844Z,3.43
2023-05-15T12:14:40.401Z,2.60
2023-05-15T12:15:40.388Z,2.22
2023-05-15T12:16:40.423Z,2.57
2023-05-15T12:17:40.426Z,2.35
2023-05-15T12:18:40.437Z,2.26
2023-05-15T12:19:40.385Z,2.02
2023-05-15T12:20:40.380Z,2.01
2023-05-15T12:21:40.381Z,1.55
2023-05-15T12:22:40.412Z,1.10
2023-05-15T12:23:40.416Z,1.17
2023-05-15T12:24:40.412Z,1.10
2023-05-15T12:25:40.430Z,1.01
2023-05-15T12:26:40.436Z,1.02
2023-05-15T12:27:40.425Z,1.10
2023-05-15T12:28:40.445Z,0.97
2023-05-15T12:29:40.452Z,0.98
2023-05-15T12:30:40.452Z,1.20
2023-05-15T12:31:40.550Z,1.26
2023-05-15T12:32:40.636Z,1.15
2023-05-15T12:33:40.612Z,1.15
2023-05-15T12:34:40.642Z,1.42
2023-05-15T12:35:40.679Z,1.30
2023-05-15T12:36:40.727Z,1.01
2023-05-15T12:37:40.792Z,1.41
2023-05-15T12:38:40.833Z,1.38
2023-05-15T12:39:40.883Z,1.00
2023-05-15T12:40:40.954Z,1.28
2023-05-15T12:41:41.008Z,1.20
2023-05-15T12:42:41.079Z,1.38
2023-05-15T12:43:41.121Z,1.65
2023-05-15T12:44:41.157Z,1.54
2023-05-15T12:45:41.248Z,1.55
2023-05-15T12:46:41.400Z,1.37
2023-05-15T12:47:41.297Z,1.43
2023-05-15T12:48:41.379Z,1.44
2023-05-15T12:49:41.393Z,1.14
2023-05-15T12:50:41.462Z,1.36
2023-05-15T12:51:41.482Z,1.54
2023-05-15T12:52:41.552Z,1.44
2023-05-15T12:53:41.685Z,1.30
2023-05-15T12:54:41.681Z,1.36
2023-05-15T12:55:41.705Z,1.40
2023-05-15T12:56:41.748Z,1.67
2023-05-15T12:57:41.808Z,1.34
2023-05-15T12:58:41.879Z,1.41
2023-05-15T12:59:41.926Z,1.14
2023-05-15T13:00:41.982Z,1.06
2023-05-15T13:01:42.088Z,1.26
2023-05-15T13:02:42.177Z,1.39
2023-05-15T13:03:42.320Z,1.43
2023-05-15T13:04:42.172Z,1.14
2023-05-15T13:05:42.227Z,1.10
2023-05-15T13:06:47.053Z,1.27
2023-05-15T13:07:43.254Z,1.15
2023-05-15T13:08:42.286Z,1.31
2023-05-15T13:09:42.275Z,1.26
2023-05-15T13:10:42.228Z,1.24
2023-05-15T13:11:42.222Z,1.21
2023-05-15T13:12:42.219Z,1.44
2023-05-15T13:13:42.220Z,1.28
2023-05-15T13:14:42.217Z,1.23
2023-05-15T13:15:42.269Z,1.13
2023-05-15T13:16:42.188Z,1.33
2023-05-15T13:17:42.267Z,1.12
2023-05-15T13:18:42.199Z,1.26